Time;durP1;ratioP1;P1;durP2;ratioP2;P2;SDS_P1;SDS_P2;PMS_P1;PMS_P2;Temp;Humidity;BMP_temperature;BMP_pressure;BME280_temperature;BME280_humidity;BME280_pressure;Samples;Min_cycle;Max_cycle;Signal;HPM_P1;HPM_P2
2022/09/18 00:00:27;;;;;;;6.05;4.45;;;;;;;13.75;96.35;98877.44;1604693;88;21067;-64
2022/09/18 00:02:57;;;;;;;5.85;4.65;;;;;;;13.74;96.56;98877.16;1629674;87;21507;-65
2022/09/18 00:05:27;;;;;;;6.60;4.45;;;;;;;13.74;96.58;98877.98;1629735;87;21504;-64
2022/09/18 00:07:57;;;;;;;6.08;4.55;;;;;;;13.73;96.57;98876.86;1629990;88;21480;-64
2022/09/18 00:10:28;;;;;;;6.33;5.03;;;;;;;13.69;96.49;98874.33;1631719;88;21051;-64
2022/09/18 00:13:00;;;;;;;5.70;4.42;;;;;;;13.66;96.49;98888.06;1632565;88;21054;-64
2022/09/18 00:15:30;;;;;;;5.53;4.47;;;;;;;13.63;96.49;98885.24;1632542;88;21059;-64
2022/09/18 00:17:59;;;;;;;6.00;4.17;;;;;;;13.58;96.54;98879.67;1630758;87;21127;-64
2022/09/18 00:20:29;;;;;;;5.40;4.17;;;;;;;13.58;96.65;98885.72;1629762;88;21068;-64
2022/09/18 00:22:58;;;;;;;5.08;4.45;;;;;;;13.59;96.81;98874.45;1629922;88;21114;-65
2022/09/18 00:25:30;;;;;;;5.47;4.53;;;;;;;13.60;96.91;98869.24;1629957;87;21089;-65
2022/09/18 00:28:00;;;;;;;5.15;4.03;;;;;;;13.61;97.01;98867.32;1629957;88;21134;-64
2022/09/18 00:30:32;;;;;;;6.67;4.70;;;;;;;13.61;97.04;98864.02;1629972;88;21048;-64
2022/09/18 00:33:03;;;;;;;5.87;4.58;;;;;;;13.62;97.11;98856.06;1629938;87;21055;-64
2022/09/18 00:35:32;;;;;;;5.92;4.75;;;;;;;13.63;97.03;98842.59;1629862;88;21546;-65
2022/09/18 00:38:02;;;;;;;5.92;4.60;;;;;;;13.67;97.16;98844.86;1630097;87;21491;-64
2022/09/18 00:40:31;;;;;;;5.58;4.97;;;;;;;13.66;97.15;98845.41;1630126;88;21106;-64
2022/09/18 00:43:21;;;;;;;5.75;4.65;;;;;;;13.64;97.14;98833.78;1630051;88;21111;-64
2022/09/18 00:46:11;;;;;;;5.95;4.60;;;;;;;13.64;97.14;98833.24;1629893;88;21047;-64
2022/09/18 00:49:04;;;;;;;6.15;3.98;;;;;;;13.67;97.18;98826.97;1630076;88;21111;-64
2022/09/18 00:51:34;;;;;;;4.95;4.40;;;;;;;13.67;96.97;98827.80;1616610;88;21099;-64
2022/09/18 00:54:17;;;;;;;4.80;4.30;;;;;;;13.67;96.93;98828.34;1630006;86;21130;-65
2022/09/18 00:56:46;;;;;;;5.62;4.50;;;;;;;13.62;96.92;98816.16;1629992;88;21055;-64
2022/09/18 00:59:21;;;;;;;6.55;4.33;;;;;;;13.60;97.11;98804.57;1630095;88;21090;-64
2022/09/18 01:01:51;;;;;;;4.75;4.25;;;;;;;13.61;97.15;98800.73;1630030;88;21491;-63
2022/09/18 01:04:23;;;;;;;6.62;4.80;;;;;;;13.61;97.16;98805.41;1629871;87;21550;-63
2022/09/18 01:07:28;;;;;;;13.43;8.03;;;;;;;13.59;97.27;98809.78;1630118;88;21055;-64
2022/09/18 01:10:18;;;;;;;14.63;8.40;;;;;;;13.56;97.37;98810.30;1630053;88;21063;-64
2022/09/18 01:12:55;;;;;;;11.40;5.90;;;;;;;13.55;97.35;98806.42;1629865;88;21011;-63
2022/09/18 01:15:37;;;;;;;9.45;5.45;;;;;;;13.55;97.21;98811.39;1629816;88;21098;-64
2022/09/18 01:18:58;;;;;;;10.48;7.55;;;;;;;13.54;97.22;98797.88;1629976;87;21115;-63
2022/09/18 01:21:39;;;;;;;15.48;10.45;;;;;;;13.55;97.41;98794.05;1629871;88;21083;-64
2022/09/18 01:24:17;;;;;;;16.48;9.28;;;;;;;13.59;97.52;98795.20;1629868;88;21095;-65
2022/09/18 01:27:00;;;;;;;16.75;9.33;;;;;;;13.60;97.46;98785.85;1629857;87;21142;-64
2022/09/18 01:29:46;;;;;;;13.58;8.83;;;;;;;13.61;97.43;98782.84;1630021;87;21526;-64
2022/09/18 01:32:27;;;;;;;10.08;5.83;;;;;;;13.62;97.29;98774.05;1630043;87;21518;-63
2022/09/18 01:35:16;;;;;;;9.45;5.97;;;;;;;13.60;97.37;98759.71;1629894;87;21079;-64
2022/09/18 01:37:53;;;;;;;6.60;4.53;;;;;;;13.61;97.47;98752.57;1629140;88;21495;-65
2022/09/18 01:40:51;;;;;;;8.08;4.80;;;;;;;13.61;97.34;98747.06;1630086;87;21514;-64
2022/09/18 01:43:20;;;;;;;4.77;3.90;;;;;;;13.61;97.18;98742.11;1630085;87;21051;-64
2022/09/18 01:45:52;;;;;;;4.65;4.10;;;;;;;13.57;97.29;98726.66;1629900;87;21097;-64
2022/09/18 01:48:33;;;;;;;5.75;4.28;;;;;;;13.58;97.29;98731.62;1630040;87;21095;-64
2022/09/18 01:51:10;;;;;;;5.50;4.33;;;;;;;13.59;97.33;98738.23;1629579;88;21487;-65
2022/09/18 01:53:43;;;;;;;5.00;4.20;;;;;;;13.62;97.35;98744.60;1604354;87;21083;-65
2022/09/18 01:56:25;;;;;;;5.50;4.35;;;;;;;13.61;97.11;98735.23;1642906;85;21071;-63
2022/09/18 01:58:57;;;;;;;5.03;3.85;;;;;;;13.61;97.06;98730.55;1662078;86;21075;-64
2022/09/18 02:01:30;;;;;;;6.42;4.50;;;;;;;13.59;96.98;98727.23;1662122;86;21051;-64
2022/09/18 02:04:07;;;;;;;6.50;4.55;;;;;;;13.57;97.05;98710.69;1663409;86;21491;-64
2022/09/18 02:06:47;;;;;;;4.90;4.00;;;;;;;13.56;97.06;98702.98;1643407;86;21136;-63
2022/09/18 02:09:19;;;;;;;5.25;4.03;;;;;;;13.54;97.05;98701.03;1633719;88;21126;-64
2022/09/18 02:11:54;;;;;;;6.03;4.45;;;;;;;13.51;97.12;98696.59;1634555;86;21581;-65
2022/09/18 02:14:37;;;;;;;7.58;4.80;;;;;;;13.51;97.16;98697.42;1634073;86;21170;-64
2022/09/18 02:17:23;;;;;;;5.37;4.53;;;;;;;13.53;97.23;98694.41;1613886;88;21471;-65
2022/09/18 02:19:59;;;;;;;6.17;4.50;;;;;;;13.55;97.13;98697.20;1621275;88;21036;-64
2022/09/18 02:22:30;;;;;;;6.70;4.53;;;;;;;13.56;97.12;98693.89;1635114;86;21044;-64
2022/09/18 02:25:04;;;;;;;5.90;4.70;;;;;;;13.58;97.05;98694.47;1633711;86;21114;-65
2022/09/18 02:27:35;;;;;;;5.87;4.83;;;;;;;13.54;97.00;98696.91;1633915;88;21143;-64
2022/09/18 02:30:07;;;;;;;6.72;4.78;;;;;;;13.53;97.11;98693.88;1633875;88;21129;-63
2022/09/18 02:32:38;;;;;;;5.75;4.55;;;;;;;13.53;97.14;98688.37;1634072;88;21139;-65
2022/09/18 02:35:09;;;;;;;5.47;4.30;;;;;;;13.53;97.19;98682.87;1633837;87;21051;-63
2022/09/18 02:38:03;;;;;;;5.85;4.90;;;;;;;13.53;97.24;98682.87;1633712;88;21083;-64
2022/09/18 02:40:53;;;;;;;7.15;5.10;;;;;;;13.56;97.34;98677.39;1634058;88;21139;-63
2022/09/18 02:43:46;;;;;;;9.08;5.35;;;;;;;13.57;97.32;98661.16;1633654;86;21051;-64
2022/09/18 02:46:22;;;;;;;7.17;5.17;;;;;;;13.56;97.34;98645.20;1630776;88;21464;-63
2022/09/18 02:49:10;;;;;;;6.92;4.97;;;;;;;13.55;97.22;98636.66;1634086;88;21099;-64
2022/09/18 02:52:07;;;;;;;6.80;5.10;;;;;;;13.55;97.19;98622.91;1637251;86;21075;-63
2022/09/18 02:54:41;;;;;;;6.55;5.28;;;;;;;13.55;97.20;98613.81;1668066;84;21125;-64
2022/09/18 02:57:16;;;;;;;8.83;5.78;;;;;;;13.52;97.21;98611.59;1679492;85;21527;-63
2022/09/18 02:59:50;;;;;;;7.28;5.15;;;;;;;13.48;97.21;98609.08;1679688;85;21152;-64
2022/09/18 03:02:23;;;;;;;7.65;5.85;;;;;;;13.46;97.48;98607.95;1664242;85;21056;-64
2022/09/18 03:04:55;;;;;;;6.80;5.00;;;;;;;13.46;97.56;98608.50;1642323;87;21106;-64
2022/09/18 03:07:26;;;;;;;7.97;5.47;;;;;;;13.45;97.73;98598.59;1613380;87;21052;-63
2022/09/18 03:09:58;;;;;;;6.22;5.35;;;;;;;13.44;97.77;98596.38;1650824;87;21121;-64
2022/09/18 03:12:27;;;;;;;6.50;5.37;;;;;;;13.41;97.85;98588.65;1650634;87;21066;-63
2022/09/18 03:15:02;;;;;;;6.78;5.10;;;;;;;13.37;97.94;98582.01;1617017;89;21459;-62
2022/09/18 03:17:31;;;;;;;5.47;4.72;;;;;;;13.37;98.12;98584.76;1617168;89;21123;-64
2022/09/18 03:20:01;;;;;;;5.80;4.37;;;;;;;13.36;98.11;98578.97;1650848;87;21073;-64
2022/09/18 03:22:31;;;;;;;6.90;4.95;;;;;;;13.34;98.27;98572.91;1617729;88;21063;-63
2022/09/18 03:25:02;;;;;;;5.65;4.53;;;;;;;13.37;98.38;98568.26;1618175;89;21484;-63
2022/09/18 03:27:35;;;;;;;5.12;4.62;;;;;;;13.36;98.20;98559.72;1618409;87;21077;-64
2022/09/18 03:30:06;;;;;;;6.67;4.53;;;;;;;13.33;98.33;98552.82;1618315;87;21064;-63
2022/09/18 03:32:36;;;;;;;4.83;4.00;;;;;;;13.36;98.44;98554.77;1618223;87;21143;-64
2022/09/18 03:35:08;;;;;;;8.55;4.58;;;;;;;13.37;98.36;98543.50;1618293;87;21098;-63
2022/09/18 03:37:38;;;;;;;5.08;4.40;;;;;;;13.36;98.34;98551.47;1617219;89;21096;-64
2022/09/18 03:40:10;;;;;;;5.05;4.05;;;;;;;13.36;98.31;98548.72;1668168;85;21104;-63
2022/09/18 03:42:43;;;;;;;8.33;4.80;;;;;;;13.36;98.46;98543.22;1679627;85;21096;-62
2022/09/18 03:45:15;;;;;;;8.30;4.90;;;;;;;13.33;98.24;98538.23;1655277;85;21088;-64
2022/09/18 03:47:47;;;;;;;6.33;4.22;;;;;;;13.30;98.29;98536.02;1679474;85;21214;-64
2022/09/18 03:50:17;;;;;;;6.12;4.72;;;;;;;13.26;98.15;98532.13;1679436;85;21061;-63
2022/09/18 03:52:47;;;;;;;5.10;4.08;;;;;;;13.26;98.34;98526.62;1677738;85;21104;-63
2022/09/18 03:55:21;;;;;;;5.58;4.42;;;;;;;13.26;98.48;98514.24;1620817;88;21111;-63
2022/09/18 03:57:59;;;;;;;5.33;4.33;;;;;;;13.22;98.35;98502.94;1583496;88;21063;-63
2022/09/18 04:00:32;;;;;;;5.67;3.90;;;;;;;13.20;98.50;98507.04;1626141;88;21055;-63
2022/09/18 04:03:04;;;;;;;5.83;4.20;;;;;;;13.17;98.52;98509.77;1627385;88;21051;-63
2022/09/18 04:05:53;;;;;;;5.12;3.77;;;;;;;13.20;98.66;98507.04;1627364;88;21496;-64
2022/09/18 04:08:33;;;;;;;5.65;3.90;;;;;;;13.21;98.64;98506.78;1627596;88;21130;-63
2022/09/18 04:11:11;;;;;;;5.70;4.42;;;;;;;13.23;98.64;98503.77;1627313;87;21044;-63
2022/09/18 04:13:42;;;;;;;5.22;4.53;;;;;;;13.20;98.48;98508.41;1627311;88;21083;-63
2022/09/18 04:16:14;;;;;;;5.00;4.03;;;;;;;13.19;98.57;98504.84;1627114;88;21089;-62
2022/09/18 04:18:49;;;;;;;4.67;3.70;;;;;;;13.15;98.47;98489.92;1627395;88;21471;-62
2022/09/18 04:21:18;;;;;;;5.10;3.58;;;;;;;13.13;98.69;98481.10;1627312;88;21050;-62
2022/09/18 04:24:10;;;;;;;5.55;3.62;;;;;;;13.13;98.87;98470.10;1627158;88;21290;-63
2022/09/18 04:26:40;;;;;;;3.85;3.30;;;;;;;13.16;98.99;98468.20;1660348;86;21066;-62
2022/09/18 04:29:11;;;;;;;4.80;3.52;;;;;;;13.14;99.04;98458.02;1698362;83;21068;-64
2022/09/18 04:31:42;;;;;;;4.28;3.10;;;;;;;13.14;99.10;98458.02;1719041;83;21035;-63
2022/09/18 04:34:17;;;;;;;3.85;3.22;;;;;;;13.14;99.14;98442.89;1672851;83;21098;-63
2022/09/18 04:36:47;;;;;;;3.45;2.95;;;;;;;13.13;99.09;98441.23;1661311;86;21028;-62
2022/09/18 04:39:17;;;;;;;3.50;2.87;;;;;;;13.13;99.20;98430.78;1673534;86;21091;-63
2022/09/18 04:41:49;;;;;;;3.95;2.87;;;;;;;13.13;99.18;98423.91;1675134;83;21112;-62
2022/09/18 04:44:20;;;;;;;4.53;2.90;;;;;;;13.10;99.21;98418.39;1661276;86;21135;-62
2022/09/18 04:46:52;;;;;;;3.30;2.72;;;;;;;13.09;99.40;98415.90;1656822;86;21083;-62
2022/09/18 04:49:22;;;;;;;3.60;3.20;;;;;;;13.10;99.54;98420.31;1688723;85;21003;-62
2022/09/18 04:51:52;;;;;;;2.58;2.37;;;;;;;13.12;99.56;98420.88;1674499;86;21091;-62
2022/09/18 04:54:22;;;;;;;2.77;2.27;;;;;;;13.12;99.59;98414.00;1698686;83;21075;-63
2022/09/18 04:56:53;;;;;;;2.90;2.60;;;;;;;13.15;99.65;98416.23;1678869;83;21031;-62
2022/09/18 04:59:24;;;;;;;3.25;2.58;;;;;;;13.15;99.47;98417.05;1699446;83;21486;-63
2022/09/18 05:01:56;;;;;;;2.60;2.20;;;;;;;13.15;99.43;98412.93;1676990;83;21038;-65
2022/09/18 05:04:26;;;;;;;2.70;2.40;;;;;;;13.18;99.36;98402.81;1667349;85;21064;-63
2022/09/18 05:07:05;;;;;;;2.25;1.90;;;;;;;13.18;99.29;98396.48;1674934;84;21047;-62
2022/09/18 05:09:37;;;;;;;2.77;2.40;;;;;;;13.21;99.07;98406.95;1676169;84;21077;-63
2022/09/18 05:12:08;;;;;;;3.72;2.35;;;;;;;13.21;98.97;98398.16;1667042;85;21079;-63
2022/09/18 05:14:39;;;;;;;2.42;2.08;;;;;;;13.21;98.91;98391.28;1663618;84;21461;-64
2022/09/18 05:17:08;;;;;;;2.42;2.10;;;;;;;13.21;98.70;98387.70;1673698;85;21007;-63
2022/09/18 05:19:41;;;;;;;2.80;2.37;;;;;;;13.20;98.64;98388.25;1688698;85;21011;-63
2022/09/18 05:22:14;;;;;;;2.20;2.00;;;;;;;13.16;98.36;98376.64;1671874;85;21076;-62
2022/09/18 05:24:46;;;;;;;2.58;2.37;;;;;;;13.15;98.46;98352.98;1681989;83;21511;-64
2022/09/18 05:27:15;;;;;;;2.67;2.20;;;;;;;13.11;98.28;98358.19;1672521;84;21222;-64
2022/09/18 05:29:45;;;;;;;2.40;2.20;;;;;;;13.11;98.43;98355.98;1657470;85;21072;-64
2022/09/18 05:32:19;;;;;;;2.58;2.25;;;;;;;13.10;98.51;98358.45;1673768;85;21050;-62
2022/09/18 05:34:49;;;;;;;3.80;2.20;;;;;;;13.11;98.45;98365.60;1683419;85;21023;-62
2022/09/18 05:37:19;;;;;;;2.95;2.33;;;;;;;13.09;98.36;98347.17;1672810;85;21381;-63
2022/09/18 05:39:51;;;;;;;3.72;2.90;;;;;;;13.07;98.34;98360.34;1672315;85;21420;-63
2022/09/18 05:42:22;;;;;;;6.60;4.28;;;;;;;13.07;98.41;98346.61;1667473;85;21024;-65
2022/09/18 05:44:51;;;;;;;6.05;4.03;;;;;;;13.06;98.37;98339.45;1651291;85;21056;-64
2022/09/18 05:47:22;;;;;;;8.75;5.55;;;;;;;12.99;98.27;98341.84;1651257;85;21048;-63
2022/09/18 05:49:52;;;;;;;10.00;6.45;;;;;;;12.97;98.37;98335.78;1677067;85;21491;-63
2022/09/18 05:52:24;;;;;;;11.73;6.33;;;;;;;12.95;98.48;98339.89;1666878;85;21488;-63
2022/09/18 05:54:54;;;;;;;13.13;6.70;;;;;;;12.94;98.64;98334.94;1663813;85;21532;-61
2022/09/18 05:57:23;;;;;;;14.33;6.83;;;;;;;12.96;98.80;98334.13;1659560;84;21050;-64
2022/09/18 05:59:53;;;;;;;12.82;6.97;;;;;;;12.93;98.69;98329.16;1683785;85;21064;-62
2022/09/18 06:02:23;;;;;;;12.23;6.40;;;;;;;12.91;98.95;98327.77;1669876;85;21023;-63
2022/09/18 06:04:54;;;;;;;7.50;5.25;;;;;;;12.92;99.13;98320.62;1658875;85;21512;-62
2022/09/18 06:07:25;;;;;;;12.40;5.10;;;;;;;12.90;99.10;98323.36;1651344;85;21148;-64
2022/09/18 06:09:54;;;;;;;7.90;4.70;;;;;;;12.88;99.26;98311.26;1665412;85;21154;-62
2022/09/18 06:12:24;;;;;;;7.37;4.75;;;;;;;12.89;99.46;98312.91;1682290;85;21963;-63
2022/09/18 06:14:54;;;;;;;7.12;4.92;;;;;;;12.90;99.50;98312.38;1678090;85;21048;-64
2022/09/18 06:17:26;;;;;;;5.60;4.10;;;;;;;12.88;99.74;98306.30;1685794;84;21067;-63
2022/09/18 06:19:58;;;;;;;6.53;3.50;;;;;;;12.89;99.87;98307.97;1658676;84;21452;-63
2022/09/18 06:22:30;;;;;;;4.78;3.87;;;;;;;12.88;99.90;98286.52;1656578;85;21113;-64
2022/09/18 06:25:00;;;;;;;7.50;3.90;;;;;;;12.90;100.00;98281.59;1656365;85;21110;-62
2022/09/18 06:27:32;;;;;;;4.83;3.50;;;;;;;12.90;100.00;98285.72;1670380;85;21089;-64
2022/09/18 06:30:02;;;;;;;4.40;3.17;;;;;;;12.95;100.00;98286.30;1635643;85;21044;-62
2022/09/18 06:32:34;;;;;;;6.20;3.65;;;;;;;12.97;100.00;98284.94;1739089;82;21063;-62
2022/09/18 06:35:05;;;;;;;4.28;3.37;;;;;;;12.98;100.00;98279.72;1694382;84;21044;-61
2022/09/18 06:37:37;;;;;;;3.92;3.35;;;;;;;13.03;100.00;98271.25;1727297;82;21032;-63
2022/09/18 06:40:15;;;;;;;4.28;3.37;;;;;;;13.07;100.00;98262.21;1721218;82;21020;-63
2022/09/18 06:43:02;;;;;;;4.03;3.08;;;;;;;13.13;100.00;98266.64;1699202;82;21087;-64
2022/09/18 06:45:39;;;;;;;4.40;3.05;;;;;;;13.17;100.00;98273.30;1731195;82;21048;-64
2022/09/18 06:48:09;;;;;;;5.55;3.52;;;;;;;13.16;100.00;98262.53;1720005;82;21040;-64
2022/09/18 06:50:39;;;;;;;4.67;3.62;;;;;;;13.17;100.00;98260.92;1727095;82;21028;-64
2022/09/18 06:53:10;;;;;;;3.85;3.02;;;;;;;13.18;100.00;98257.63;1686977;84;21080;-63
2022/09/18 06:55:44;;;;;;;4.47;3.37;;;;;;;13.21;100.00;98250.22;1717964;82;21075;-64
2022/09/18 06:58:16;;;;;;;4.78;3.27;;;;;;;13.23;100.00;98253.53;1677662;84;21029;-63
2022/09/18 07:00:46;;;;;;;3.52;3.02;;;;;;;13.18;100.00;98244.70;1704237;82;21736;-63
2022/09/18 07:03:18;;;;;;;4.10;3.42;;;;;;;13.18;100.00;98255.70;1731885;82;21040;-66
2022/09/18 07:05:56;;;;;;;5.70;3.72;;;;;;;13.19;100.00;98266.16;1655215;84;21073;-62
2022/09/18 07:08:29;;;;;;;6.78;3.95;;;;;;;13.19;100.00;98256.53;1636861;85;21052;-65
2022/09/18 07:11:01;;;;;;;5.95;4.20;;;;;;;13.18;100.00;98252.12;1689439;82;21055;-64
2022/09/18 07:13:31;;;;;;;4.62;3.70;;;;;;;13.19;100.00;98261.48;1717989;82;21079;-65
2022/09/18 07:16:02;;;;;;;4.83;3.65;;;;;;;13.23;100.00;98252.16;1695544;84;21056;-63
2022/09/18 07:18:32;;;;;;;5.62;3.83;;;;;;;13.23;100.00;98248.03;1726698;82;21468;-65
2022/09/18 07:21:02;;;;;;;4.70;4.08;;;;;;;13.23;100.00;98245.28;1684668;82;21083;-62
2022/09/18 07:23:36;;;;;;;6.15;4.20;;;;;;;13.25;100.00;98239.79;1694986;84;21024;-64
2022/09/18 07:26:10;;;;;;;4.80;3.58;;;;;;;13.27;100.00;98238.97;1720506;82;21080;-63
2022/09/18 07:28:40;;;;;;;4.92;3.40;;;;;;;13.27;100.00;98234.02;1670121;85;21080;-63
2022/09/18 07:31:12;;;;;;;5.40;3.52;;;;;;;13.27;100.00;98217.52;1672808;84;21551;-64
2022/09/18 07:33:44;;;;;;;4.83;3.70;;;;;;;13.31;100.00;98199.39;1655994;86;21012;-64
2022/09/18 07:36:17;;;;;;;5.53;3.75;;;;;;;13.37;100.00;98190.61;1662541;85;21056;-64
2022/09/18 07:38:50;;;;;;;5.10;3.40;;;;;;;13.38;100.00;98188.96;1674987;85;21065;-62
2022/09/18 07:41:21;;;;;;;4.08;3.33;;;;;;;13.42;100.00;98196.13;1670272;84;21072;-63
2022/09/18 07:43:52;;;;;;;5.17;3.20;;;;;;;13.46;100.00;98187.61;1656608;85;21048;-63
2022/09/18 07:46:23;;;;;;;5.78;3.33;;;;;;;13.48;100.00;98185.42;1656986;86;21027;-65
2022/09/18 07:48:56;;;;;;;4.25;3.20;;;;;;;13.53;100.00;98182.13;1658035;85;21115;-64
2022/09/18 07:51:27;;;;;;;5.15;3.25;;;;;;;13.58;100.00;98194.52;1637877;86;21072;-64
2022/09/18 07:54:00;;;;;;;3.65;3.17;;;;;;;13.64;100.00;98193.98;1658463;85;21101;-64
2022/09/18 07:56:43;;;;;;;4.28;3.25;;;;;;;13.68;100.00;98195.13;1669124;85;21537;-66
2022/09/18 07:59:14;;;;;;;5.40;3.80;;;;;;;13.63;100.00;98194.53;1672798;84;21409;-69
2022/09/18 08:01:44;;;;;;;4.40;2.87;;;;;;;13.62;100.00;98191.50;1656916;86;21509;-66
2022/09/18 08:04:17;;;;;;;6.75;3.75;;;;;;;13.64;100.00;98192.06;1629750;86;21075;-67
2022/09/18 08:06:54;;;;;;;9.13;4.37;;;;;;;13.67;100.00;98191.27;1643357;86;22004;-68
2022/09/18 08:09:43;;;;;;;4.10;3.30;;;;;;;13.69;100.00;98199.53;1656212;86;21059;-66
2022/09/18 08:12:14;;;;;;;4.75;3.02;;;;;;;13.69;100.00;98209.72;1654962;86;21024;-66
2022/09/18 08:14:55;;;;;;;3.47;2.98;;;;;;;13.71;100.00;98204.22;1647443;86;21029;-67
2022/09/18 08:17:46;;;;;;;7.25;3.50;;;;;;;13.75;100.00;98207.25;1668665;85;21487;-67
2022/09/18 08:20:19;;;;;;;4.80;2.90;;;;;;;13.75;100.00;98205.88;1656625;86;21023;-67
2022/09/18 08:22:53;;;;;;;5.33;3.08;;;;;;;13.73;100.00;98209.45;1665628;84;21554;-67
2022/09/18 08:25:26;;;;;;;3.98;3.10;;;;;;;13.75;100.00;98205.88;1661871;84;21008;-67
2022/09/18 08:28:00;;;;;;;5.95;3.20;;;;;;;13.75;100.00;98192.11;1681810;85;21064;-66
2022/09/18 08:30:37;;;;;;;6.47;3.30;;;;;;;13.77;100.00;98183.86;1683176;84;21052;-65
2022/09/18 08:33:10;;;;;;;4.22;3.20;;;;;;;13.77;100.00;98174.23;1693170;84;21045;-64
2022/09/18 08:35:40;;;;;;;4.80;3.42;;;;;;;13.80;100.00;98172.86;1647927;84;21075;-64
2022/09/18 08:38:23;;;;;;;5.28;3.90;;;;;;;13.81;100.00;98173.13;1656570;86;21064;-64
2022/09/18 08:41:24;;;;;;;4.50;3.42;;;;;;;13.82;100.00;98168.73;1673116;85;21019;-64
2022/09/18 08:44:06;;;;;;;6.62;3.65;;;;;;;13.84;100.00;98156.90;1673769;84;21044;-66
2022/09/18 08:47:02;;;;;;;5.15;3.72;;;;;;;13.87;100.00;98154.98;1654926;84;21493;-65
2022/09/18 08:49:46;;;;;;;7.78;4.25;;;;;;;13.87;100.00;98145.34;1649701;85;21071;-66
2022/09/18 08:52:27;;;;;;;5.70;3.80;;;;;;;13.85;100.00;98146.72;1675190;84;21306;-67
2022/09/18 08:55:12;;;;;;;6.80;4.25;;;;;;;13.83;100.00;98152.50;1667124;84;21459;-67
2022/09/18 08:58:09;;;;;;;7.80;4.30;;;;;;;13.84;100.00;98150.02;1676174;85;21051;-64
2022/09/18 09:00:50;;;;;;;8.75;5.15;;;;;;;13.88;100.00;98142.04;1665069;84;21077;-64
2022/09/18 09:04:03;;;;;;;20.72;9.80;;;;;;;13.93;100.00;98133.78;1665253;85;21549;-64
2022/09/18 09:06:53;;;;;;;13.93;7.80;;;;;;;13.96;100.00;98133.23;1669079;85;21560;-65
2022/09/18 09:09:41;;;;;;;11.75;6.60;;;;;;;14.00;100.00;98135.70;1659292;85;21533;-66
2022/09/18 09:12:27;;;;;;;6.67;4.30;;;;;;;14.05;100.00;98137.09;1670315;85;21091;-66
2022/09/18 09:15:18;;;;;;;7.58;4.30;;;;;;;14.11;100.00;98116.70;1666070;85;21144;-66
2022/09/18 09:18:18;;;;;;;8.00;4.75;;;;;;;14.15;100.00;98120.56;1672763;85;21105;-68
2022/09/18 09:20:54;;;;;;;5.90;3.95;;;;;;;14.21;100.00;98123.58;1627673;87;21112;-68
2022/09/18 09:24:01;;;;;;;7.05;4.08;;;;;;;14.30;100.00;98110.08;1659600;85;21445;-67
2022/09/18 09:26:42;;;;;;;8.05;3.90;;;;;;;14.29;100.00;98105.67;1680943;84;21084;-68
2022/09/18 09:29:28;;;;;;;6.00;4.37;;;;;;;14.32;100.00;98101.56;1671062;85;21063;-67
2022/09/18 09:32:22;;;;;;;9.58;4.67;;;;;;;14.32;100.00;98101.56;1680756;85;21604;-68
2022/09/18 09:35:28;;;;;;;3.90;3.30;;;;;;;14.34;100.00;98101.56;1644434;86;21024;-68
2022/09/18 09:38:26;;;;;;;9.13;5.97;;;;;;;14.29;100.00;98094.09;1657446;85;21107;-73
2022/09/18 09:40:56;;;;;;;6.25;3.45;;;;;;;14.32;100.00;98087.80;1668265;85;21536;-74
2022/09/18 09:43:56;;;;;;;6.03;3.35;;;;;;;14.38;100.00;98087.50;1675619;85;21056;-73
2022/09/18 09:47:02;;;;;;;6.40;3.02;;;;;;;14.44;100.00;98096.61;1670526;85;21519;-74
2022/09/18 09:50:09;;;;;;;3.65;3.20;;;;;;;14.45;100.00;98096.33;1662108;85;21074;-73
2022/09/18 09:52:40;;;;;;;5.85;3.58;;;;;;;14.48;100.00;98097.70;1663818;84;21146;-74
2022/09/18 09:55:25;;;;;;;5.20;3.05;;;;;;;14.52;100.00;98101.55;1668668;85;21098;-75
2022/09/18 09:58:30;;;;;;;5.12;3.33;;;;;;;14.59;100.00;98105.66;1672479;85;21059;-75
2022/09/18 10:01:13;;;;;;;3.20;2.80;;;;;;;14.65;100.00;98102.34;1666316;85;21070;-71
2022/09/18 10:04:12;;;;;;;4.65;3.15;;;;;;;14.71;100.00;98097.08;1644822;86;21220;-73
2022/09/18 10:07:13;;;;;;;5.92;3.70;;;;;;;14.75;100.00;98107.82;1663727;84;21071;-74
2022/09/18 10:10:08;;;;;;;8.28;5.37;;;;;;;14.76;100.00;98106.72;1671906;85;21526;-73
2022/09/18 10:12:55;;;;;;;6.90;4.53;;;;;;;14.79;100.00;98100.64;1671818;85;21027;-70
2022/09/18 10:15:42;;;;;;;9.08;5.10;;;;;;;14.82;100.00;98092.36;1681349;84;21541;-71
2022/09/18 10:18:28;;;;;;;6.85;4.87;;;;;;;14.84;100.00;98095.66;1693106;83;21040;-71
2022/09/18 10:21:09;;;;;;;7.30;6.03;;;;;;;14.84;100.00;98092.91;1687594;84;21027;-72
2022/09/18 10:23:40;;;;;;;8.60;7.10;;;;;;;14.85;100.00;98105.02;1647449;86;21076;-72
2022/09/18 10:26:26;;;;;;;12.30;7.75;;;;;;;14.83;100.00;98102.28;1654542;84;21038;-71
2022/09/18 10:28:55;;;;;;;11.83;8.53;;;;;;;14.81;100.00;98097.05;1661440;85;21493;-74
2022/09/18 10:31:27;;;;;;;11.83;8.25;;;;;;;14.82;100.00;98099.25;1669410;85;21165;-71
2022/09/18 10:33:58;;;;;;;12.03;8.65;;;;;;;14.85;100.00;98100.89;1632187;85;21554;-70
2022/09/18 10:36:37;;;;;;;13.83;8.38;;;;;;;14.86;100.00;98096.20;1670001;84;21155;-70
2022/09/18 10:39:26;;;;;;;11.43;8.38;;;;;;;14.83;100.00;98097.59;1655834;84;21084;-71
2022/09/18 10:42:03;;;;;;;14.60;8.28;;;;;;;14.82;100.00;98100.08;1656791;86;21027;-71
2022/09/18 10:44:40;;;;;;;11.38;8.93;;;;;;;14.82;100.00;98099.25;1677829;84;21064;-70
2022/09/18 10:47:18;;;;;;;13.30;8.53;;;;;;;14.80;100.00;98089.06;1658538;85;21114;-71
2022/09/18 10:50:07;;;;;;;11.67;8.60;;;;;;;14.78;100.00;98078.31;1639449;86;21111;-69
2022/09/18 10:52:42;;;;;;;11.10;8.38;;;;;;;14.83;100.00;98084.36;1640530;86;21493;-70
2022/09/18 10:55:26;;;;;;;11.68;8.63;;;;;;;14.88;100.00;98089.85;1668846;85;21086;-71
2022/09/18 10:58:13;;;;;;;11.53;8.50;;;;;;;14.90;100.00;98089.84;1667723;85;21076;-72
2022/09/18 11:00:52;;;;;;;11.45;8.00;;;;;;;14.92;100.00;98095.08;1628556;86;21158;-70
2022/09/18 11:03:46;;;;;;;13.05;8.38;;;;;;;14.92;100.00;98089.56;1532939;92;21150;-71
2022/09/18 11:06:23;;;;;;;16.30;9.65;;;;;;;14.93;100.00;98073.84;1533823;92;21098;-71
2022/09/18 11:08:55;;;;;;;15.25;10.10;;;;;;;14.95;100.00;98066.11;1536129;92;21504;-72
2022/09/18 11:11:34;;;;;;;13.03;9.28;;;;;;;14.93;100.00;98060.05;1521027;94;21508;-69
2022/09/18 11:14:34;;;;;;;11.63;9.13;;;;;;;14.95;100.00;98053.70;1509989;94;21537;-66
2022/09/18 11:17:06;;;;;;;14.03;9.65;;;;;;;14.94;100.00;98052.05;1489242;93;21479;-68
2022/09/18 11:19:39;;;;;;;13.78;9.88;;;;;;;14.97;100.00;98052.34;1536528;92;21564;-69
2022/09/18 11:22:34;;;;;;;14.18;9.80;;;;;;;14.98;100.00;98045.72;1519896;94;21075;-69
2022/09/18 11:25:19;;;;;;;13.65;9.48;;;;;;;15.02;100.00;98042.66;1516137;93;21477;-69
2022/09/18 11:27:59;;;;;;;13.35;9.00;;;;;;;15.06;100.00;98034.65;1526621;92;21074;-68
2022/09/18 11:30:34;;;;;;;13.53;9.05;;;;;;;15.02;100.00;98034.95;1588199;89;21461;-71
2022/09/18 11:33:21;;;;;;;10.28;8.20;;;;;;;15.04;100.00;98034.11;1552251;91;21529;-70
2022/09/18 11:35:58;;;;;;;;;;;;;;;15.05;100.00;98030.23;1650477;85;21004;-69
2022/09/18 11:38:27;;;;;;;9.43;7.33;;;;;;;15.04;100.00;98021.14;1659469;84;20227;-68
2022/09/18 11:40:58;;;;;;;9.28;7.33;;;;;;;15.04;100.00;98011.49;1696501;84;21118;-69
2022/09/18 11:43:32;;;;;;;10.15;7.95;;;;;;;15.08;100.00;98005.67;1694890;84;21428;-68
2022/09/18 11:46:10;;;;;;;9.48;7.50;;;;;;;15.11;100.00;98007.86;1674314;84;21107;-70
2022/09/18 11:48:51;;;;;;;;;;;;;;;15.14;100.00;98000.95;1671174;85;21062;-69
2022/09/18 11:51:43;;;;;;;9.33;7.53;;;;;;;15.16;100.00;98003.69;1647080;85;20159;-69
2022/09/18 11:54:29;;;;;;;9.80;7.45;;;;;;;15.15;100.00;97995.70;1659508;85;20995;-68
2022/09/18 11:57:02;;;;;;;8.70;6.37;;;;;;;15.17;100.00;97980.52;1641034;85;21086;-69
2022/09/18 11:59:50;;;;;;;11.40;7.20;;;;;;;15.19;100.00;97966.44;1665421;84;21059;-67
2022/09/18 12:03:12;;;;;;;9.93;6.95;;;;;;;15.22;100.00;97954.83;1697876;83;21048;-69
2022/09/18 12:06:13;;;;;;;10.58;7.22;;;;;;;15.28;100.00;97945.95;1732696;82;21023;-70
2022/09/18 12:08:56;;;;;;;8.60;7.10;;;;;;;15.33;100.00;97939.84;1732029;82;21052;-71
2022/09/18 12:11:47;;;;;;;11.63;7.55;;;;;;;15.38;100.00;97941.73;1736215;82;21489;-71
2022/09/18 12:14:34;;;;;;;9.85;7.17;;;;;;;15.44;100.00;97938.64;1682754;85;21063;-72
2022/09/18 12:17:29;;;;;;;8.78;6.62;;;;;;;15.49;100.00;97942.73;1704151;82;21084;-73